sensor_id;sensor_type;location;lat;lon;timestamp;P1;durP1;ratioP1;P2;durP2;ratioP2
39882;SDS011;55824;52.220;21.040;2023-09-08T00:00:01;6.07;;;3.85;;
39882;SDS011;55824;52.220;21.040;2023-09-08T00:02:28;5.82;;;3.78;;
39882;SDS011;55824;52.220;21.040;2023-09-08T00:04:54;5.18;;;3.58;;
39882;SDS011;55824;52.220;21.040;2023-09-08T00:07:20;5.57;;;4.00;;
39882;SDS011;55824;52.220;21.040;2023-09-08T00:09:46;6.78;;;4.05;;
39882;SDS011;55824;52.220;21.040;2023-09-08T00:12:12;5.32;;;3.53;;
39882;SDS011;55824;52.220;21.040;2023-09-08T00:14:38;6.05;;;4.13;;
39882;SDS011;55824;52.220;21.040;2023-09-08T00:17:04;6.88;;;3.80;;
39882;SDS011;55824;52.220;21.040;2023-09-08T00:19:30;5.95;;;3.75;;
39882;SDS011;55824;52.220;21.040;2023-09-08T00:21:56;5.65;;;3.80;;
39882;SDS011;55824;52.220;21.040;2023-09-08T00:24:23;6.22;;;3.72;;
39882;SDS011;55824;52.220;21.040;2023-09-08T00:26:49;6.07;;;4.30;;
39882;SDS011;55824;52.220;21.040;2023-09-08T00:29:15;5.85;;;3.70;;
39882;SDS011;55824;52.220;21.040;2023-09-08T00:31:41;5.90;;;3.60;;
39882;SDS011;55824;52.220;21.040;2023-09-08T00:34:08;5.35;;;3.72;;
39882;SDS011;55824;52.220;21.040;2023-09-08T00:36:33;5.53;;;3.70;;
39882;SDS011;55824;52.220;21.040;2023-09-08T00:38:59;5.28;;;3.78;;
39882;SDS011;55824;52.220;21.040;2023-09-08T00:41:25;6.88;;;4.15;;
39882;SDS011;55824;52.220;21.040;2023-09-08T00:43:51;5.20;;;3.75;;
39882;SDS011;55824;52.220;21.040;2023-09-08T00:46:17;5.63;;;3.72;;
39882;SDS011;55824;52.220;21.040;2023-09-08T00:48:43;4.53;;;3.60;;
39882;SDS011;55824;52.220;21.040;2023-09-08T00:51:10;6.40;;;3.85;;
39882;SDS011;55824;52.220;21.040;2023-09-08T00:53:36;6.78;;;4.20;;
39882;SDS011;55824;52.220;21.040;2023-09-08T00:56:02;5.43;;;3.50;;
39882;SDS011;55824;52.220;21.040;2023-09-08T00:58:29;5.32;;;3.47;;
39882;SDS011;55824;52.220;21.040;2023-09-08T01:00:55;6.75;;;4.20;;
39882;SDS011;55824;52.220;21.040;2023-09-08T01:03:24;6.00;;;3.83;;
39882;SDS011;55824;52.220;21.040;2023-09-08T01:05:50;7.50;;;3.95;;
39882;SDS011;55824;52.220;21.040;2023-09-08T01:08:16;5.07;;;3.90;;
39882;SDS011;55824;52.220;21.040;2023-09-08T01:10:43;5.43;;;3.78;;
39882;SDS011;55824;52.220;21.040;2023-09-08T01:13:09;6.50;;;3.88;;
39882;SDS011;55824;52.220;21.040;2023-09-08T01:15:35;5.38;;;3.80;;
39882;SDS011;55824;52.220;21.040;2023-09-08T01:18:01;5.53;;;3.88;;
39882;SDS011;55824;52.220;21.040;2023-09-08T01:20:29;6.03;;;3.95;;
39882;SDS011;55824;52.220;21.040;2023-09-08T01:23:03;5.75;;;3.90;;
39882;SDS011;55824;52.220;21.040;2023-09-08T01:25:31;6.25;;;3.92;;
39882;SDS011;55824;52.220;21.040;2023-09-08T01:28:00;5.32;;;3.50;;
39882;SDS011;55824;52.220;21.040;2023-09-08T01:30:27;5.82;;;4.03;;
39882;SDS011;55824;52.220;21.040;2023-09-08T01:32:57;6.78;;;4.32;;
39882;SDS011;55824;52.220;21.040;2023-09-08T01:35:24;5.88;;;3.72;;
39882;SDS011;55824;52.220;21.040;2023-09-08T01:37:50;6.95;;;3.50;;
39882;SDS011;55824;52.220;21.040;2023-09-08T01:40:16;9.00;;;4.00;;
39882;SDS011;55824;52.220;21.040;2023-09-08T01:42:44;6.35;;;3.83;;
39882;SDS011;55824;52.220;21.040;2023-09-08T01:45:10;5.68;;;3.97;;
39882;SDS011;55824;52.220;21.040;2023-09-08T01:47:36;5.63;;;3.58;;
39882;SDS011;55824;52.220;21.040;2023-09-08T01:50:03;8.25;;;3.90;;
39882;SDS011;55824;52.220;21.040;2023-09-08T01:52:29;8.23;;;3.90;;
39882;SDS011;55824;52.220;21.040;2023-09-08T01:54:55;5.10;;;3.85;;
39882;SDS011;55824;52.220;21.040;2023-09-08T01:57:21;5.97;;;3.90;;
39882;SDS011;55824;52.220;21.040;2023-09-08T01:59:47;6.82;;;3.85;;
39882;SDS011;55824;52.220;21.040;2023-09-08T02:02:13;5.15;;;3.75;;
39882;SDS011;55824;52.220;21.040;2023-09-08T02:04:39;4.82;;;3.65;;
39882;SDS011;55824;52.220;21.040;2023-09-08T02:07:05;5.13;;;3.60;;
39882;SDS011;55824;52.220;21.040;2023-09-08T02:09:31;6.35;;;3.80;;
39882;SDS011;55824;52.220;21.040;2023-09-08T02:11:58;5.72;;;3.83;;
39882;SDS011;55824;52.220;21.040;2023-09-08T02:14:24;4.80;;;3.38;;
39882;SDS011;55824;52.220;21.040;2023-09-08T02:16:50;5.45;;;3.60;;
39882;SDS011;55824;52.220;21.040;2023-09-08T02:19:16;5.82;;;4.00;;
39882;SDS011;55824;52.220;21.040;2023-09-08T02:21:41;6.22;;;3.97;;
39882;SDS011;55824;52.220;21.040;2023-09-08T02:24:07;5.72;;;3.80;;
39882;SDS011;55824;52.220;21.040;2023-09-08T02:26:33;6.50;;;4.28;;
39882;SDS011;55824;52.220;21.040;2023-09-08T02:29:00;5.05;;;3.78;;
39882;SDS011;55824;52.220;21.040;2023-09-08T02:31:26;5.93;;;3.83;;
39882;SDS011;55824;52.220;21.040;2023-09-08T02:33:52;5.88;;;4.38;;
39882;SDS011;55824;52.220;21.040;2023-09-08T02:36:18;6.15;;;4.00;;
39882;SDS011;55824;52.220;21.040;2023-09-08T02:38:51;5.13;;;3.47;;
39882;SDS011;55824;52.220;21.040;2023-09-08T02:41:17;5.28;;;3.70;;
39882;SDS011;55824;52.220;21.040;2023-09-08T02:43:43;5.93;;;4.00;;
39882;SDS011;55824;52.220;21.040;2023-09-08T02:46:09;7.47;;;4.18;;
39882;SDS011;55824;52.220;21.040;2023-09-08T02:48:35;5.65;;;3.95;;
39882;SDS011;55824;52.220;21.040;2023-09-08T02:51:01;5.00;;;3.40;;
39882;SDS011;55824;52.220;21.040;2023-09-08T02:53:27;5.25;;;3.50;;
39882;SDS011;55824;52.220;21.040;2023-09-08T02:55:57;6.93;;;4.00;;
39882;SDS011;55824;52.220;21.040;2023-09-08T03:00:49;5.18;;;3.70;;
39882;SDS011;55824;52.220;21.040;2023-09-08T03:03:17;6.38;;;3.83;;
39882;SDS011;55824;52.220;21.040;2023-09-08T03:05:43;5.32;;;3.83;;
39882;SDS011;55824;52.220;21.040;2023-09-08T03:08:09;7.65;;;3.95;;
39882;SDS011;55824;52.220;21.040;2023-09-08T03:10:35;8.73;;;4.28;;
39882;SDS011;55824;52.220;21.040;2023-09-08T03:13:01;5.57;;;4.03;;
39882;SDS011;55824;52.220;21.040;2023-09-08T03:15:27;6.25;;;3.97;;
39882;SDS011;55824;52.220;21.040;2023-09-08T03:17:56;6.25;;;3.83;;
39882;SDS011;55824;52.220;21.040;2023-09-08T03:20:26;9.15;;;3.83;;
39882;SDS011;55824;52.220;21.040;2023-09-08T03:22:53;6.13;;;3.97;;
39882;SDS011;55824;52.220;21.040;2023-09-08T03:25:19;7.10;;;4.10;;
39882;SDS011;55824;52.220;21.040;2023-09-08T03:27:45;6.05;;;3.70;;
39882;SDS011;55824;52.220;21.040;2023-09-08T03:30:11;6.97;;;4.18;;
39882;SDS011;55824;52.220;21.040;2023-09-08T03:32:37;5.55;;;3.92;;
39882;SDS011;55824;52.220;21.040;2023-09-08T03:35:03;6.90;;;3.85;;
39882;SDS011;55824;52.220;21.040;2023-09-08T03:37:32;5.63;;;4.22;;
39882;SDS011;55824;52.220;21.040;2023-09-08T03:39:58;6.53;;;3.90;;
39882;SDS011;55824;52.220;21.040;2023-09-08T03:42:24;5.38;;;3.72;;
39882;SDS011;55824;52.220;21.040;2023-09-08T03:44:50;6.40;;;4.13;;
39882;SDS011;55824;52.220;21.040;2023-09-08T03:47:16;7.18;;;4.07;;
39882;SDS011;55824;52.220;21.040;2023-09-08T03:49:42;6.22;;;3.67;;
39882;SDS011;55824;52.220;21.040;2023-09-08T03:52:07;6.00;;;4.10;;
39882;SDS011;55824;52.220;21.040;2023-09-08T03:54:33;5.60;;;3.85;;
39882;SDS011;55824;52.220;21.040;2023-09-08T03:56:59;6.72;;;3.60;;
39882;SDS011;55824;52.220;21.040;2023-09-08T03:59:25;5.07;;;4.10;;
39882;SDS011;55824;52.220;21.040;2023-09-08T04:01:51;7.28;;;3.50;;
39882;SDS011;55824;52.220;21.040;2023-09-08T04:04:17;6.30;;;4.07;;
39882;SDS011;55824;52.220;21.040;2023-09-08T04:06:45;5.78;;;3.90;;
39882;SDS011;55824;52.220;21.040;2023-09-08T04:09:11;6.07;;;3.95;;
39882;SDS011;55824;52.220;21.040;2023-09-08T04:11:37;6.72;;;3.95;;
39882;SDS011;55824;52.220;21.040;2023-09-08T04:14:03;5.00;;;3.67;;
39882;SDS011;55824;52.220;21.040;2023-09-08T04:16:29;13.82;;;4.45;;
39882;SDS011;55824;52.220;21.040;2023-09-08T04:18:55;4.65;;;3.20;;
39882;SDS011;55824;52.220;21.040;2023-09-08T04:21:21;5.95;;;4.03;;
39882;SDS011;55824;52.220;21.040;2023-09-08T04:23:47;9.02;;;4.30;;
39882;SDS011;55824;52.220;21.040;2023-09-08T04:26:13;6.25;;;3.85;;
39882;SDS011;55824;52.220;21.040;2023-09-08T04:28:39;8.18;;;4.03;;
39882;SDS011;55824;52.220;21.040;2023-09-08T04:31:05;6.80;;;4.20;;
39882;SDS011;55824;52.220;21.040;2023-09-08T04:33:31;8.07;;;3.83;;
39882;SDS011;55824;52.220;21.040;2023-09-08T04:35:56;6.68;;;3.90;;
39882;SDS011;55824;52.220;21.040;2023-09-08T04:38:23;8.75;;;3.80;;
39882;SDS011;55824;52.220;21.040;2023-09-08T04:40:49;5.50;;;3.95;;
39882;SDS011;55824;52.220;21.040;2023-09-08T04:43:14;5.38;;;3.63;;
39882;SDS011;55824;52.220;21.040;2023-09-08T04:45:40;6.07;;;3.90;;
39882;SDS011;55824;52.220;21.040;2023-09-08T04:48:06;6.25;;;3.67;;
39882;SDS011;55824;52.220;21.040;2023-09-08T04:50:32;6.53;;;3.72;;
39882;SDS011;55824;52.220;21.040;2023-09-08T04:52:59;5.07;;;3.78;;
39882;SDS011;55824;52.220;21.040;2023-09-08T04:55:25;7.95;;;3.53;;
39882;SDS011;55824;52.220;21.040;2023-09-08T04:57:51;5.75;;;3.80;;
39882;SDS011;55824;52.220;21.040;2023-09-08T05:00:17;6.15;;;4.25;;
39882;SDS011;55824;52.220;21.040;2023-09-08T05:02:44;8.52;;;4.70;;
39882;SDS011;55824;52.220;21.040;2023-09-08T05:05:11;6.32;;;4.25;;
39882;SDS011;55824;52.220;21.040;2023-09-08T05:07:37;5.55;;;3.88;;
39882;SDS011;55824;52.220;21.040;2023-09-08T05:10:03;7.15;;;3.78;;
39882;SDS011;55824;52.220;21.040;2023-09-08T05:12:29;7.05;;;4.32;;
39882;SDS011;55824;52.220;21.040;2023-09-08T05:14:55;4.90;;;3.97;;
39882;SDS011;55824;52.220;21.040;2023-09-08T05:17:25;5.18;;;4.07;;
39882;SDS011;55824;52.220;21.040;2023-09-08T05:19:51;7.95;;;4.32;;
39882;SDS011;55824;52.220;21.040;2023-09-08T05:22:17;7.53;;;4.30;;
39882;SDS011;55824;52.220;21.040;2023-09-08T05:24:43;9.45;;;4.38;;
39882;SDS011;55824;52.220;21.040;2023-09-08T05:27:09;8.38;;;4.68;;
39882;SDS011;55824;52.220;21.040;2023-09-08T05:29:35;7.97;;;4.75;;
39882;SDS011;55824;52.220;21.040;2023-09-08T05:32:01;8.45;;;4.70;;
39882;SDS011;55824;52.220;21.040;2023-09-08T05:34:27;7.55;;;5.07;;
39882;SDS011;55824;52.220;21.040;2023-09-08T05:36:53;6.43;;;5.15;;
39882;SDS011;55824;52.220;21.040;2023-09-08T05:39:19;9.60;;;5.68;;
39882;SDS011;55824;52.220;21.040;2023-09-08T05:41:45;8.95;;;5.88;;
39882;SDS011;55824;52.220;21.040;2023-09-08T05:44:11;9.75;;;5.15;;
39882;SDS011;55824;52.220;21.040;2023-09-08T05:46:37;8.52;;;5.40;;
39882;SDS011;55824;52.220;21.040;2023-09-08T05:49:03;7.40;;;5.32;;
39882;SDS011;55824;52.220;21.040;2023-09-08T05:51:30;6.50;;;4.78;;
39882;SDS011;55824;52.220;21.040;2023-09-08T05:53:56;7.88;;;5.10;;
39882;SDS011;55824;52.220;21.040;2023-09-08T05:56:24;7.88;;;5.35;;
39882;SDS011;55824;52.220;21.040;2023-09-08T05:58:50;11.82;;;6.30;;
39882;SDS011;55824;52.220;21.040;2023-09-08T06:01:17;12.73;;;6.15;;
39882;SDS011;55824;52.220;21.040;2023-09-08T06:03:43;10.48;;;5.32;;
39882;SDS011;55824;52.220;21.040;2023-09-08T06:06:09;9.43;;;5.32;;
39882;SDS011;55824;52.220;21.040;2023-09-08T06:08:35;14.43;;;5.80;;
39882;SDS011;55824;52.220;21.040;2023-09-08T06:11:01;12.40;;;6.03;;
39882;SDS011;55824;52.220;21.040;2023-09-08T06:13:27;14.10;;;5.60;;
39882;SDS011;55824;52.220;21.040;2023-09-08T06:15:53;13.23;;;5.28;;
39882;SDS011;55824;52.220;21.040;2023-09-08T06:18:19;9.07;;;5.35;;
39882;SDS011;55824;52.220;21.040;2023-09-08T06:20:48;11.38;;;5.78;;
39882;SDS011;55824;52.220;21.040;2023-09-08T06:23:14;14.23;;;6.47;;
39882;SDS011;55824;52.220;21.040;2023-09-08T06:25:40;10.90;;;5.47;;
39882;SDS011;55824;52.220;21.040;2023-09-08T06:28:06;10.13;;;5.28;;
39882;SDS011;55824;52.220;21.040;2023-09-08T06:30:32;11.50;;;5.43;;
39882;SDS011;55824;52.220;21.040;2023-09-08T06:32:58;9.50;;;5.43;;
39882;SDS011;55824;52.220;21.040;2023-09-08T06:35:25;20.60;;;5.50;;
39882;SDS011;55824;52.220;21.040;2023-09-08T06:37:51;8.82;;;5.55;;
39882;SDS011;55824;52.220;21.040;2023-09-08T06:40:17;9.98;;;5.53;;
39882;SDS011;55824;52.220;21.040;2023-09-08T06:42:43;10.43;;;5.78;;
39882;SDS011;55824;52.220;21.040;2023-09-08T06:45:09;7.85;;;5.10;;
39882;SDS011;55824;52.220;21.040;2023-09-08T06:47:35;9.95;;;5.40;;
39882;SDS011;55824;52.220;21.040;2023-09-08T06:50:01;7.57;;;5.00;;
39882;SDS011;55824;52.220;21.040;2023-09-08T06:52:27;7.60;;;5.80;;
39882;SDS011;55824;52.220;21.040;2023-09-08T06:54:54;7.97;;;5.72;;
39882;SDS011;55824;52.220;21.040;2023-09-08T06:57:20;7.43;;;5.22;;
39882;SDS011;55824;52.220;21.040;2023-09-08T06:59:46;11.70;;;5.30;;
39882;SDS011;55824;52.220;21.040;2023-09-08T07:02:12;9.82;;;5.38;;
39882;SDS011;55824;52.220;21.040;2023-09-08T07:04:37;8.98;;;4.63;;
39882;SDS011;55824;52.220;21.040;2023-09-08T07:07:03;10.00;;;5.38;;
39882;SDS011;55824;52.220;21.040;2023-09-08T07:09:32;8.60;;;5.55;;
39882;SDS011;55824;52.220;21.040;2023-09-08T07:11:58;8.10;;;5.25;;
39882;SDS011;55824;52.220;21.040;2023-09-08T07:14:24;8.38;;;5.15;;
39882;SDS011;55824;52.220;21.040;2023-09-08T07:16:50;11.48;;;4.82;;
39882;SDS011;55824;52.220;21.040;2023-09-08T07:19:16;8.50;;;5.57;;
39882;SDS011;55824;52.220;21.040;2023-09-08T07:21:42;9.48;;;5.82;;
39882;SDS011;55824;52.220;21.040;2023-09-08T07:24:08;9.10;;;5.15;;
39882;SDS011;55824;52.220;21.040;2023-09-08T07:26:34;10.68;;;5.32;;
39882;SDS011;55824;52.220;21.040;2023-09-08T07:29:00;7.00;;;4.93;;
39882;SDS011;55824;52.220;21.040;2023-09-08T07:31:26;8.48;;;5.03;;
39882;SDS011;55824;52.220;21.040;2023-09-08T07:33:52;8.88;;;4.70;;
39882;SDS011;55824;52.220;21.040;2023-09-08T07:36:18;7.18;;;4.97;;
39882;SDS011;55824;52.220;21.040;2023-09-08T07:38:44;9.90;;;5.07;;
39882;SDS011;55824;52.220;21.040;2023-09-08T07:41:10;10.55;;;5.93;;
39882;SDS011;55824;52.220;21.040;2023-09-08T07:43:36;8.60;;;5.68;;
39882;SDS011;55824;52.220;21.040;2023-09-08T07:46:05;9.63;;;5.67;;
39882;SDS011;55824;52.220;21.040;2023-09-08T07:48:31;13.45;;;5.63;;
39882;SDS011;55824;52.220;21.040;2023-09-08T07:50:57;9.05;;;5.50;;
39882;SDS011;55824;52.220;21.040;2023-09-08T07:53:26;9.23;;;5.43;;
39882;SDS011;55824;52.220;21.040;2023-09-08T07:55:53;9.50;;;5.70;;
39882;SDS011;55824;52.220;21.040;2023-09-08T07:58:19;8.68;;;5.40;;
39882;SDS011;55824;52.220;21.040;2023-09-08T08:00:45;12.43;;;5.95;;
39882;SDS011;55824;52.220;21.040;2023-09-08T08:03:11;10.93;;;5.53;;
39882;SDS011;55824;52.220;21.040;2023-09-08T08:05:37;7.30;;;5.40;;
39882;SDS011;55824;52.220;21.040;2023-09-08T08:08:03;10.00;;;5.50;;
39882;SDS011;55824;52.220;21.040;2023-09-08T08:10:29;8.10;;;4.90;;
39882;SDS011;55824;52.220;21.040;2023-09-08T08:12:55;12.13;;;5.68;;
39882;SDS011;55824;52.220;21.040;2023-09-08T08:15:22;8.63;;;5.88;;
39882;SDS011;55824;52.220;21.040;2023-09-08T08:17:48;9.23;;;5.28;;
39882;SDS011;55824;52.220;21.040;2023-09-08T08:20:14;8.48;;;5.05;;
39882;SDS011;55824;52.220;21.040;2023-09-08T08:22:44;8.35;;;5.18;;
39882;SDS011;55824;52.220;21.040;2023-09-08T08:25:10;8.93;;;4.90;;
39882;SDS011;55824;52.220;21.040;2023-09-08T08:27:37;8.57;;;5.47;;
39882;SDS011;55824;52.220;21.040;2023-09-08T08:30:04;9.38;;;5.22;;
39882;SDS011;55824;52.220;21.040;2023-09-08T08:32:30;11.93;;;5.20;;
39882;SDS011;55824;52.220;21.040;2023-09-08T08:34:56;10.68;;;4.82;;
39882;SDS011;55824;52.220;21.040;2023-09-08T08:37:22;9.18;;;4.63;;
39882;SDS011;55824;52.220;21.040;2023-09-08T08:39:48;8.57;;;4.88;;
39882;SDS011;55824;52.220;21.040;2023-09-08T08:42:14;7.00;;;5.45;;
39882;SDS011;55824;52.220;21.040;2023-09-08T08:44:40;7.50;;;4.75;;
39882;SDS011;55824;52.220;21.040;2023-09-08T08:47:10;10.38;;;5.40;;
39882;SDS011;55824;52.220;21.040;2023-09-08T08:49:37;8.57;;;5.45;;
39882;SDS011;55824;52.220;21.040;2023-09-08T08:52:06;9.55;;;5.05;;
39882;SDS011;55824;52.220;21.040;2023-09-08T08:54:39;9.32;;;4.47;;
39882;SDS011;55824;52.220;21.040;2023-09-08T08:57:06;7.22;;;4.70;;
39882;SDS011;55824;52.220;21.040;2023-09-08T08:59:32;8.32;;;4.40;;
39882;SDS011;55824;52.220;21.040;2023-09-08T09:01:59;7.68;;;4.68;;
39882;SDS011;55824;52.220;21.040;2023-09-08T09:04:25;10.20;;;4.80;;
39882;SDS011;55824;52.220;21.040;2023-09-08T09:06:52;6.30;;;4.28;;
39882;SDS011;55824;52.220;21.040;2023-09-08T09:09:18;13.55;;;5.25;;
39882;SDS011;55824;52.220;21.040;2023-09-08T09:11:45;9.93;;;4.43;;
39882;SDS011;55824;52.220;21.040;2023-09-08T09:14:11;7.15;;;4.40;;
39882;SDS011;55824;52.220;21.040;2023-09-08T09:16:43;6.32;;;4.43;;
39882;SDS011;55824;52.220;21.040;2023-09-08T09:19:10;7.45;;;4.65;;
39882;SDS011;55824;52.220;21.040;2023-09-08T09:21:43;9.15;;;4.55;;
39882;SDS011;55824;52.220;21.040;2023-09-08T09:24:17;7.65;;;4.78;;
39882;SDS011;55824;52.220;21.040;2023-09-08T09:26:43;8.93;;;4.50;;
39882;SDS011;55824;52.220;21.040;2023-09-08T09:29:13;8.93;;;5.15;;
39882;SDS011;55824;52.220;21.040;2023-09-08T09:34:05;8.50;;;4.90;;
39882;SDS011;55824;52.220;21.040;2023-09-08T09:36:31;10.70;;;4.93;;
39882;SDS011;55824;52.220;21.040;2023-09-08T09:38:58;6.30;;;4.35;;
39882;SDS011;55824;52.220;21.040;2023-09-08T09:41:25;6.55;;;4.75;;
39882;SDS011;55824;52.220;21.040;2023-09-08T09:43:51;9.88;;;5.05;;
39882;SDS011;55824;52.220;21.040;2023-09-08T09:46:17;8.27;;;4.22;;
39882;SDS011;55824;52.220;21.040;2023-09-08T09:48:45;6.43;;;4.25;;
39882;SDS011;55824;52.220;21.040;2023-09-08T09:51:16;7.45;;;4.38;;
39882;SDS011;55824;52.220;21.040;2023-09-08T09:53:43;6.53;;;3.95;;
39882;SDS011;55824;52.220;21.040;2023-09-08T09:56:09;7.20;;;5.03;;
39882;SDS011;55824;52.220;21.040;2023-09-08T09:58:37;7.88;;;4.30;;
39882;SDS011;55824;52.220;21.040;2023-09-08T10:01:03;6.05;;;4.22;;
39882;SDS011;55824;52.220;21.040;2023-09-08T10:03:29;6.03;;;4.22;;
39882;SDS011;55824;52.220;21.040;2023-09-08T10:05:57;6.63;;;4.75;;
39882;SDS011;55824;52.220;21.040;2023-09-08T10:08:23;6.32;;;4.25;;
39882;SDS011;55824;52.220;21.040;2023-09-08T10:10:49;7.65;;;4.50;;
39882;SDS011;55824;52.220;21.040;2023-09-08T10:13:22;9.82;;;5.38;;
39882;SDS011;55824;52.220;21.040;2023-09-08T10:15:49;7.57;;;3.97;;
39882;SDS011;55824;52.220;21.040;2023-09-08T10:18:16;7.50;;;4.53;;
39882;SDS011;55824;52.220;21.040;2023-09-08T10:20:44;8.40;;;4.43;;
39882;SDS011;55824;52.220;21.040;2023-09-08T10:23:20;7.63;;;5.28;;
39882;SDS011;55824;52.220;21.040;2023-09-08T10:25:47;6.90;;;4.15;;
39882;SDS011;55824;52.220;21.040;2023-09-08T10:28:18;9.30;;;4.88;;
39882;SDS011;55824;52.220;21.040;2023-09-08T10:30:45;6.00;;;4.15;;
39882;SDS011;55824;52.220;21.040;2023-09-08T10:33:11;8.52;;;4.80;;
39882;SDS011;55824;52.220;21.040;2023-09-08T10:35:38;10.52;;;4.68;;
39882;SDS011;55824;52.220;21.040;2023-09-08T10:40:51;5.97;;;4.38;;
39882;SDS011;55824;52.220;21.040;2023-09-08T10:43:18;8.18;;;4.30;;
39882;SDS011;55824;52.220;21.040;2023-09-08T10:45:45;6.15;;;4.50;;
39882;SDS011;55824;52.220;21.040;2023-09-08T10:48:11;7.45;;;4.47;;
39882;SDS011;55824;52.220;21.040;2023-09-08T10:50:39;6.80;;;4.25;;
39882;SDS011;55824;52.220;21.040;2023-09-08T10:53:06;6.57;;;4.32;;
39882;SDS011;55824;52.220;21.040;2023-09-08T10:55:49;8.68;;;4.60;;
39882;SDS011;55824;52.220;21.040;2023-09-08T10:58:34;7.35;;;4.53;;
39882;SDS011;55824;52.220;21.040;2023-09-08T11:01:03;8.77;;;4.60;;
39882;SDS011;55824;52.220;21.040;2023-09-08T11:06:04;10.00;;;4.72;;
39882;SDS011;55824;52.220;21.040;2023-09-08T11:08:30;7.18;;;4.40;;
39882;SDS011;55824;52.220;21.040;2023-09-08T11:10:56;8.85;;;4.97;;
39882;SDS011;55824;52.220;21.040;2023-09-08T11:13:22;9.07;;;4.95;;
39882;SDS011;55824;52.220;21.040;2023-09-08T11:15:52;6.90;;;4.35;;
39882;SDS011;55824;52.220;21.040;2023-09-08T11:18:25;6.18;;;4.43;;
39882;SDS011;55824;52.220;21.040;2023-09-08T11:20:51;7.15;;;4.50;;
39882;SDS011;55824;52.220;21.040;2023-09-08T11:23:18;7.25;;;4.40;;
39882;SDS011;55824;52.220;21.040;2023-09-08T11:25:44;6.55;;;4.57;;
39882;SDS011;55824;52.220;21.040;2023-09-08T11:28:10;7.28;;;4.25;;
39882;SDS011;55824;52.220;21.040;2023-09-08T11:30:38;9.55;;;4.90;;
39882;SDS011;55824;52.220;21.040;2023-09-08T11:33:04;6.00;;;4.10;;
39882;SDS011;55824;52.220;21.040;2023-09-08T11:35:31;7.65;;;4.25;;
39882;SDS011;55824;52.220;21.040;2023-09-08T11:37:58;7.20;;;4.72;;
39882;SDS011;55824;52.220;21.040;2023-09-08T11:40:26;4.68;;;4.15;;
39882;SDS011;55824;52.220;21.040;2023-09-08T11:42:53;6.43;;;4.70;;
39882;SDS011;55824;52.220;21.040;2023-09-08T11:45:19;6.03;;;4.38;;
39882;SDS011;55824;52.220;21.040;2023-09-08T11:47:46;8.88;;;4.30;;
39882;SDS011;55824;52.220;21.040;2023-09-08T11:50:14;6.00;;;4.15;;
39882;SDS011;55824;52.220;21.040;2023-09-08T11:52:45;9.80;;;5.38;;
39882;SDS011;55824;52.220;21.040;2023-09-08T11:55:12;7.13;;;4.45;;
39882;SDS011;55824;52.220;21.040;2023-09-08T11:57:38;7.15;;;4.68;;
39882;SDS011;55824;52.220;21.040;2023-09-08T12:00:05;7.15;;;4.88;;
39882;SDS011;55824;52.220;21.040;2023-09-08T12:02:34;7.70;;;5.30;;
39882;SDS011;55824;52.220;21.040;2023-09-08T12:05:02;6.50;;;4.90;;
39882;SDS011;55824;52.220;21.040;2023-09-08T12:07:28;7.10;;;4.60;;
39882;SDS011;55824;52.220;21.040;2023-09-08T12:09:54;6.40;;;4.53;;
39882;SDS011;55824;52.220;21.040;2023-09-08T12:12:20;8.38;;;4.20;;
39882;SDS011;55824;52.220;21.040;2023-09-08T12:14:46;7.18;;;4.85;;
39882;SDS011;55824;52.220;21.040;2023-09-08T12:17:12;6.57;;;4.35;;
39882;SDS011;55824;52.220;21.040;2023-09-08T12:19:42;6.15;;;4.50;;
39882;SDS011;55824;52.220;21.040;2023-09-08T12:22:08;7.15;;;4.30;;
39882;SDS011;55824;52.220;21.040;2023-09-08T12:27:21;6.28;;;4.43;;
39882;SDS011;55824;52.220;21.040;2023-09-08T12:32:23;6.50;;;4.60;;
39882;SDS011;55824;52.220;21.040;2023-09-08T12:34:50;6.57;;;4.90;;
39882;SDS011;55824;52.220;21.040;2023-09-08T12:37:20;7.72;;;4.80;;
39882;SDS011;55824;52.220;21.040;2023-09-08T12:39:46;6.55;;;4.25;;
39882;SDS011;55824;52.220;21.040;2023-09-08T12:42:13;6.82;;;4.85;;
39882;SDS011;55824;52.220;21.040;2023-09-08T12:44:39;6.20;;;4.70;;
39882;SDS011;55824;52.220;21.040;2023-09-08T12:47:05;7.10;;;4.70;;
39882;SDS011;55824;52.220;21.040;2023-09-08T12:49:32;5.50;;;4.53;;
39882;SDS011;55824;52.220;21.040;2023-09-08T12:51:58;7.10;;;4.38;;
39882;SDS011;55824;52.220;21.040;2023-09-08T12:54:24;6.50;;;4.70;;
39882;SDS011;55824;52.220;21.040;2023-09-08T12:56:50;6.70;;;4.40;;
39882;SDS011;55824;52.220;21.040;2023-09-08T12:59:16;5.78;;;4.50;;
39882;SDS011;55824;52.220;21.040;2023-09-08T13:01:42;5.13;;;4.32;;
39882;SDS011;55824;52.220;21.040;2023-09-08T13:04:08;6.95;;;4.35;;
39882;SDS011;55824;52.220;21.040;2023-09-08T13:06:34;5.50;;;4.30;;
39882;SDS011;55824;52.220;21.040;2023-09-08T13:09:00;5.80;;;4.45;;
39882;SDS011;55824;52.220;21.040;2023-09-08T13:11:26;6.65;;;4.38;;
39882;SDS011;55824;52.220;21.040;2023-09-08T13:13:53;7.28;;;5.50;;
39882;SDS011;55824;52.220;21.040;2023-09-08T13:16:19;6.90;;;4.63;;
39882;SDS011;55824;52.220;21.040;2023-09-08T13:18:45;4.95;;;3.88;;
39882;SDS011;55824;52.220;21.040;2023-09-08T13:21:11;5.13;;;4.32;;
39882;SDS011;55824;52.220;21.040;2023-09-08T13:23:37;5.95;;;4.50;;
39882;SDS011;55824;52.220;21.040;2023-09-08T13:26:03;6.35;;;4.55;;
39882;SDS011;55824;52.220;21.040;2023-09-08T13:28:29;6.50;;;4.80;;
39882;SDS011;55824;52.220;21.040;2023-09-08T13:30:55;5.65;;;4.43;;
39882;SDS011;55824;52.220;21.040;2023-09-08T13:33:21;6.50;;;4.82;;
39882;SDS011;55824;52.220;21.040;2023-09-08T13:35:47;5.25;;;4.50;;
39882;SDS011;55824;52.220;21.040;2023-09-08T13:38:13;6.20;;;4.80;;
39882;SDS011;55824;52.220;21.040;2023-09-08T13:40:39;6.65;;;4.82;;
39882;SDS011;55824;52.220;21.040;2023-09-08T13:43:06;6.03;;;4.70;;
39882;SDS011;55824;52.220;21.040;2023-09-08T13:45:32;5.22;;;4.20;;
39882;SDS011;55824;52.220;21.040;2023-09-08T13:47:58;6.88;;;4.32;;
39882;SDS011;55824;52.220;21.040;2023-09-08T13:50:24;6.07;;;4.32;;
39882;SDS011;55824;52.220;21.040;2023-09-08T13:52:50;6.18;;;4.57;;
39882;SDS011;55824;52.220;21.040;2023-09-08T13:55:17;6.18;;;4.60;;
39882;SDS011;55824;52.220;21.040;2023-09-08T13:57:48;6.32;;;4.35;;
39882;SDS011;55824;52.220;21.040;2023-09-08T14:00:14;5.65;;;4.68;;
39882;SDS011;55824;52.220;21.040;2023-09-08T14:02:40;6.68;;;4.10;;
39882;SDS011;55824;52.220;21.040;2023-09-08T14:05:06;5.15;;;4.38;;
39882;SDS011;55824;52.220;21.040;2023-09-08T14:07:32;6.10;;;4.75;;
39882;SDS011;55824;52.220;21.040;2023-09-08T14:09:58;6.28;;;4.35;;
39882;SDS011;55824;52.220;21.040;2023-09-08T14:12:26;5.78;;;4.60;;
39882;SDS011;55824;52.220;21.040;2023-09-08T14:14:52;5.97;;;4.43;;
39882;SDS011;55824;52.220;21.040;2023-09-08T14:17:18;6.35;;;4.40;;
39882;SDS011;55824;52.220;21.040;2023-09-08T14:19:45;5.78;;;4.53;;
39882;SDS011;55824;52.220;21.040;2023-09-08T14:22:12;5.32;;;4.45;;
39882;SDS011;55824;52.220;21.040;2023-09-08T14:24:38;7.10;;;4.78;;
39882;SDS011;55824;52.220;21.040;2023-09-08T14:27:04;9.52;;;4.38;;
39882;SDS011;55824;52.220;21.040;2023-09-08T14:29:30;5.55;;;4.50;;
39882;SDS011;55824;52.220;21.040;2023-09-08T14:31:56;5.32;;;4.13;;
39882;SDS011;55824;52.220;21.040;2023-09-08T14:34:22;5.10;;;4.38;;
39882;SDS011;55824;52.220;21.040;2023-09-08T14:36:49;6.43;;;4.38;;
39882;SDS011;55824;52.220;21.040;2023-09-08T14:39:15;5.78;;;4.20;;
39882;SDS011;55824;52.220;21.040;2023-09-08T14:41:42;6.35;;;4.20;;
39882;SDS011;55824;52.220;21.040;2023-09-08T14:44:08;5.55;;;4.28;;